Covington, Illinois
Current Conditions -  °F | °C
As of 3:15 PM on Monday 24 Nov 2014 (Local Time) from KENL Reporting Station
Overcast Overcast  
Wind Chill: 35°   Ceiling: 5500
Heat Index: 42°   Visibility: 10mi
Dew Point: 30°   Wind: 14mph
Humidity: 62%   Direction: 270°W
Pressure: 29.79"   Gusts: 18mph
Location:  38.4375°N, 89.4767°W
Report Text: KENL 242115Z AUTO 27012G16KT 10SM OVC055 06/M01 A2979 RMK AO2 T00561012
Loading
Personal Weather Stations






























Interactive Weather Map New forecast layout! Learn more

10-Day Weather Forecast

Advertisements
Track Severe Weather on mobile